Carlisle, MA (01741)

11:15 PM EDT on April 20, 2015 (GMT -0400)
Carlisle Fire Carlisle Center | | Change Station
CLOSE
Current Station
Personal Weather Station
Location: Carlisle, MA
Elevation: 199 ft
Nearby Weather Stations

Elev 199 ft 42.53 °N, 71.35 °W | Updated 1 second ago

Rain
Rain
49.6 °F
Feels Like 50 °F
N
0.0
Wind Variable Wind from East
Gusts 0.0 mph

Today
High -- | Low -- °F
--% Chance of Precip.
Yesterday
High -- | Low -- °F
Precip. -- in
5:56 AM 7:32 PM
Waxing Crescent, 7% visible
Pressure 29.78 in
Visibility 4.0 miles
Clouds Overcast 400 ft
Windchill 50 °F
Dew Point 49 °F
Humidity 97%
Rainfall 0.49 in
Snow Depth Not available.
UV 0 out of 12
Pollen 2.80 out of 12
Air Quality Not available.
Flu Activity Widespread
METAR KBED 210256Z 06005KT 4SM -RA BR OVC004 11/11 A2973 RMK AO2 SLP082 P0007 60019 T01060106 58023

More Conditions Fewer Conditions

Pressure 29.78 in
Visibility 4.0 miles
Clouds Overcast 400 ft
Windchill 50 °F
Dew Point 49 °F
Humidity 97%
Rainfall 0.49 in
Snow Depth Not available.
UV 0 out of 12
Pollen 2.80 out of 12
Air Quality Not available.
Flu Activity Widespread
METAR KBED 210256Z 06005KT 4SM -RA BR OVC004 11/11 A2973 RMK AO2 SLP082 P0007 60019 T01060106 58023

More Conditions Fewer Conditions

10-Day Weather Forecast

Almanac

Astronomy

Apr. 20, 2015 Rise Set
Actual Time
Civil Twilight
Nautical Twilight
Astronomical Twilight
Moon
Length of Visible Light
Length of Day
Tomorrow will be .
, % of the Moon is Illuminated

Today's Extremes

State Highs State Lows

Community

WunderPhotos

Upload Photos

1,815,289 photos uploaded!

WunderBlogs® & News

Nearby

Air Quality

  Air Quality AQ Index Pollutant
Not available.

Snow Depth

Station Depth Elevation

Earthquake Activity

City Distance Mag. Time & Date
Minimum magnitude displayed is 2.5.

Coastal Water Temperatures

Place Temperature

Stations

Nearby Weather Stations

Station Location Temp. Windchill Dew Point Humidity Wind Precip. Elev Updated Type